Terminal Aerodrome Forecast
Issued by NWS Spokane, WA

Home | Current Version | Previous Version | Text Only | Print | Product List | Glossary On
Versions: 1 2 3 4 5 6 7 8 9 10 11 12 13 14 15 16 17 18
000
FTUS46 KOTX 111933 AAA
TAFLWS
TAF AMD
KLWS 111933Z 1120/1218 VRB03KT P6SM SCT008 OVC014=

USA.gov is the U.S. government's official web portal to all federal, state and local government web resources and services.